Time;durP1;ratioP1;P1;durP2;ratioP2;P2;SDS_P1;SDS_P2;PMS_P1;PMS_P2;Temp;Humidity;BMP_temperature;BMP_pressure;BME280_temperature;BME280_humidity;BME280_pressure;Samples;Min_cycle;Max_cycle;Signal;HPM_P1;HPM_P2
2021/12/25 00:01:08;;;;;;;2.33;1.20;;;-0.40;99.90;;;;;;4939308;29;20327;-85
2021/12/25 00:03:35;;;;;;;4.90;1.35;;;-0.40;99.90;;;;;;4916374;29;20291;-84
2021/12/25 00:06:02;;;;;;;3.03;1.30;;;-0.40;99.90;;;;;;4940567;29;20047;-84
2021/12/25 00:08:31;;;;;;;4.17;1.40;;;-0.40;99.90;;;;;;4928490;29;20290;-85
2021/12/25 00:10:58;;;;;;;4.87;1.43;;;-0.50;99.90;;;;;;4906349;29;20285;-84
2021/12/25 00:13:24;;;;;;;1.97;1.10;;;-0.40;99.90;;;;;;4921454;29;20812;-84
2021/12/25 00:15:51;;;;;;;2.77;1.20;;;-0.50;99.90;;;;;;4895581;29;20319;-84
2021/12/25 00:18:18;;;;;;;8.63;1.43;;;-0.50;99.90;;;;;;4909278;29;20286;-85
2021/12/25 00:20:45;;;;;;;8.07;1.10;;;-0.50;99.90;;;;;;4910810;29;20315;-84
2021/12/25 00:23:11;;;;;;;2.83;1.07;;;-0.50;99.90;;;;;;4909471;29;20279;-84
2021/12/25 00:25:43;;;;;;;2.50;1.07;;;-0.70;99.90;;;;;;4901577;29;20609;-83
2021/12/25 00:31:21;;;;;;;1.97;1.00;;;-0.70;99.90;;;;;;4951905;29;20492;-84
2021/12/25 00:33:58;;;;;;;3.33;1.17;;;-0.70;99.90;;;;;;4913901;29;20382;-85
2021/12/25 00:36:25;;;;;;;5.73;1.20;;;-0.80;99.90;;;;;;4911200;29;20367;-85
2021/12/25 00:38:52;;;;;;;5.47;1.43;;;-0.80;99.90;;;;;;4895387;29;20778;-85
2021/12/25 00:41:20;;;;;;;2.90;1.23;;;-0.80;99.90;;;;;;4900956;29;20747;-85
2021/12/25 00:43:47;;;;;;;3.77;1.10;;;-0.80;99.90;;;;;;4911756;29;20295;-84
2021/12/25 00:46:13;;;;;;;4.73;0.87;;;-0.80;99.90;;;;;;4898466;29;21174;-84
2021/12/25 00:48:39;;;;;;;2.93;0.80;;;-0.80;99.90;;;;;;4918241;29;20318;-84
2021/12/25 00:51:05;;;;;;;3.20;1.13;;;-0.80;99.90;;;;;;4949998;28;20139;-84
2021/12/25 00:53:32;;;;;;;3.40;1.23;;;-1.00;99.90;;;;;;4923065;29;20044;-83
2021/12/25 00:55:58;;;;;;;4.10;1.20;;;-0.90;99.90;;;;;;4967272;28;20356;-82
2021/12/25 00:58:24;;;;;;;2.87;1.13;;;-0.90;99.90;;;;;;4918296;29;20291;-84
2021/12/25 01:00:51;;;;;;;2.40;1.00;;;-0.90;99.90;;;;;;4914983;29;20295;-84
2021/12/25 01:03:16;;;;;;;2.07;1.03;;;-0.90;99.90;;;;;;4891678;29;20046;-84
2021/12/25 01:05:42;;;;;;;3.70;0.80;;;-1.00;99.90;;;;;;4945512;29;20279;-84
2021/12/25 01:08:10;;;;;;;3.07;1.00;;;-1.00;99.90;;;;;;4929771;29;20044;-84
2021/12/25 01:10:36;;;;;;;5.83;1.67;;;-0.90;99.90;;;;;;4913145;29;20043;-84
2021/12/25 01:13:13;;;;;;;3.90;1.30;;;-1.00;99.90;;;;;;4929825;29;20286;-84
2021/12/25 01:31:15;;;;;;;2.80;1.20;;;-1.30;99.90;;;;;;4906890;29;20288;-83
2021/12/25 01:49:39;;;;;;;1.67;0.80;;;-1.60;99.90;;;;;;4943281;29;20303;-84
2021/12/25 01:52:06;;;;;;;5.50;1.10;;;-1.50;99.90;;;;;;4916196;29;20294;-84
2021/12/25 01:54:33;;;;;;;2.00;1.00;;;-1.60;99.90;;;;;;4910270;29;20279;-83
2021/12/25 01:56:59;;;;;;;5.17;1.40;;;-1.60;99.90;;;;;;4889061;29;20781;-85
2021/12/25 01:59:25;;;;;;;4.60;1.00;;;-1.70;99.90;;;;;;4926630;29;20282;-83
2021/12/25 02:01:51;;;;;;;3.20;0.87;;;-1.70;99.90;;;;;;4926342;29;20797;-83
2021/12/25 02:04:17;;;;;;;3.33;1.20;;;-1.70;99.90;;;;;;4932825;29;20036;-83
2021/12/25 02:06:43;;;;;;;3.13;1.00;;;-1.70;99.90;;;;;;4914250;29;21245;-84
2021/12/25 02:09:09;;;;;;;3.10;1.00;;;-1.70;99.90;;;;;;4914792;29;20071;-84
2021/12/25 02:11:34;;;;;;;3.97;1.23;;;-1.80;99.90;;;;;;4947782;29;20032;-84
2021/12/25 02:14:00;;;;;;;1.60;0.93;;;-1.80;99.90;;;;;;4919396;29;20412;-83
2021/12/25 02:16:36;;;;;;;5.57;1.33;;;-1.80;99.90;;;;;;4918698;29;20039;-83
2021/12/25 02:19:04;;;;;;;1.13;1.00;;;-1.80;99.90;;;;;;4915530;29;20054;-82
2021/12/25 02:21:36;;;;;;;2.73;1.20;;;-1.80;99.90;;;;;;4928603;29;20361;-83
2021/12/25 02:24:07;;;;;;;1.67;1.00;;;-1.90;99.90;;;;;;4917894;29;20655;-83
2021/12/25 02:26:36;;;;;;;2.72;1.02;;;-1.90;99.90;;;;;;4919288;29;20035;-83
2021/12/25 02:29:02;;;;;;;2.77;1.10;;;-1.90;99.90;;;;;;4952323;29;20051;-82
2021/12/25 02:31:28;;;;;;;2.30;0.90;;;-1.90;99.90;;;;;;4923756;29;20331;-83
2021/12/25 02:33:53;;;;;;;4.83;1.10;;;-2.00;99.90;;;;;;4884963;29;20283;-83
2021/12/25 02:36:19;;;;;;;2.60;1.00;;;-2.00;99.90;;;;;;4907256;29;20042;-83
2021/12/25 02:38:46;;;;;;;3.87;1.30;;;-2.00;99.90;;;;;;4916422;29;20043;-83
2021/12/25 02:41:12;;;;;;;2.17;1.00;;;-2.10;99.90;;;;;;4949167;29;20062;-83
2021/12/25 02:43:39;;;;;;;4.40;1.20;;;-2.00;99.90;;;;;;4906499;29;20283;-83
2021/12/25 02:46:06;;;;;;;1.97;0.90;;;-2.10;99.90;;;;;;4916055;29;20282;-83
2021/12/25 02:48:36;;;;;;;5.27;1.00;;;-2.00;99.90;;;;;;4903005;29;20642;-83
2021/12/25 02:51:02;;;;;;;5.57;1.20;;;-2.10;99.90;;;;;;4913478;29;20298;-83
2021/12/25 02:53:28;;;;;;;2.40;1.20;;;-2.10;99.90;;;;;;4918018;29;20363;-84
2021/12/25 02:55:54;;;;;;;3.90;1.27;;;-2.10;99.90;;;;;;4899283;29;20394;-83
2021/12/25 02:58:20;;;;;;;3.43;0.97;;;-2.10;99.90;;;;;;4922088;29;20468;-83
2021/12/25 03:00:53;;;;;;;1.50;0.90;;;-2.20;99.90;;;;;;4893489;29;20035;-83
2021/12/25 03:03:19;;;;;;;1.73;0.90;;;-2.20;99.90;;;;;;4914232;29;20040;-83
2021/12/25 03:05:45;;;;;;;3.57;1.83;;;-2.20;99.90;;;;;;4908224;29;20287;-83
2021/12/25 03:08:12;;;;;;;2.07;0.97;;;-2.20;99.90;;;;;;4934138;29;20043;-83
2021/12/25 03:10:39;;;;;;;1.60;0.97;;;-2.20;99.90;;;;;;4929871;29;20380;-83
2021/12/25 03:15:56;;;;;;;2.57;0.90;;;-2.30;99.90;;;;;;4949255;29;20452;-83
2021/12/25 03:18:25;;;;;;;1.50;1.10;;;-2.30;99.90;;;;;;4916463;29;20287;-82
2021/12/25 03:20:54;;;;;;;2.57;1.07;;;-2.40;99.90;;;;;;4906234;29;20291;-83
2021/12/25 03:23:23;;;;;;;2.70;1.10;;;-2.40;99.90;;;;;;4919724;29;20284;-83
2021/12/25 03:25:50;;;;;;;3.83;1.20;;;-2.40;99.90;;;;;;4918793;29;20288;-83
2021/12/25 03:28:18;;;;;;;1.63;1.10;;;-2.40;99.90;;;;;;4911851;29;20783;-83
2021/12/25 03:30:44;;;;;;;3.03;1.00;;;-2.50;99.90;;;;;;4914438;29;20299;-83
2021/12/25 03:33:12;;;;;;;3.47;1.10;;;-2.50;99.90;;;;;;4924676;29;20281;-82
2021/12/25 03:35:38;;;;;;;1.87;0.90;;;-2.50;99.90;;;;;;4922139;29;20299;-80
2021/12/25 03:38:05;;;;;;;3.43;1.10;;;-2.50;99.90;;;;;;4917263;29;20279;-81
2021/12/25 03:40:31;;;;;;;3.30;1.20;;;-2.50;99.90;;;;;;4939793;29;20315;-83
2021/12/25 03:42:57;;;;;;;4.47;1.77;;;-2.50;99.90;;;;;;4919222;29;20287;-83
2021/12/25 03:45:24;;;;;;;3.17;1.13;;;-2.50;99.90;;;;;;4892252;29;20371;-83
2021/12/25 03:48:02;;;;;;;2.43;1.10;;;-2.50;99.90;;;;;;4936957;29;20040;-83
2021/12/25 03:58:28;;;;;;;3.77;0.90;;;-2.60;99.90;;;;;;4939616;29;20288;-83
2021/12/25 04:01:00;;;;;;;1.88;1.10;;;-2.70;99.90;;;;;;4895797;29;20640;-82
2021/12/25 04:03:41;;;;;;;2.05;0.80;;;-2.60;99.90;;;;;;4929101;29;20036;-83
2021/12/25 04:06:09;;;;;;;1.27;0.73;;;-2.70;99.90;;;;;;4913376;29;20040;-83
2021/12/25 04:08:41;;;;;;;1.50;0.83;;;-2.70;99.90;;;;;;4924919;29;20292;-83
2021/12/25 04:11:25;;;;;;;2.77;1.10;;;-2.80;99.90;;;;;;4902401;29;20316;-83
2021/12/25 04:13:51;;;;;;;2.93;1.00;;;-2.70;99.90;;;;;;4919922;29;20283;-83
2021/12/25 04:16:17;;;;;;;2.40;0.90;;;-2.80;99.90;;;;;;4941035;29;20287;-83
2021/12/25 04:18:43;;;;;;;1.93;0.80;;;-2.80;99.90;;;;;;4886671;29;20075;-83
2021/12/25 04:21:09;;;;;;;1.33;0.73;;;-2.80;99.90;;;;;;4922047;29;20087;-83
2021/12/25 04:23:38;;;;;;;1.77;1.00;;;-2.80;99.90;;;;;;4897213;29;20074;-83
2021/12/25 04:26:04;;;;;;;3.00;1.30;;;-2.90;99.90;;;;;;4922979;29;20373;-83
2021/12/25 04:28:45;;;;;;;4.83;1.00;;;-2.80;99.90;;;;;;4895336;29;20287;-83
2021/12/25 05:06:01;;;;;;;2.90;1.07;;;-3.00;99.90;;;;;;4928935;29;20610;-83
2021/12/25 05:08:27;;;;;;;1.40;0.90;;;-3.00;99.90;;;;;;4897455;29;20074;-83
2021/12/25 05:10:54;;;;;;;3.43;1.00;;;-3.00;99.90;;;;;;4896299;29;20311;-83
2021/12/25 05:13:20;;;;;;;1.07;0.80;;;-3.10;99.90;;;;;;4900859;29;20444;-83
2021/12/25 05:15:47;;;;;;;1.37;0.80;;;-3.10;99.90;;;;;;4898517;29;20295;-84
2021/12/25 05:18:13;;;;;;;1.10;0.87;;;-3.00;99.90;;;;;;4941853;29;20775;-83
2021/12/25 05:20:39;;;;;;;5.40;1.00;;;-3.10;99.90;;;;;;4911612;29;20796;-84
2021/12/25 05:23:05;;;;;;;1.00;0.90;;;-3.00;99.90;;;;;;4929298;29;20334;-84
2021/12/25 05:25:33;;;;;;;2.17;0.90;;;-3.10;99.90;;;;;;4910185;29;20544;-84
2021/12/25 05:28:00;;;;;;;2.03;0.80;;;-3.10;99.90;;;;;;4907235;29;20284;-84
2021/12/25 05:30:27;;;;;;;2.10;0.80;;;-3.10;99.90;;;;;;4917066;29;20415;-84
2021/12/25 05:32:53;;;;;;;1.10;0.80;;;-3.10;99.90;;;;;;4936889;29;20288;-84
2021/12/25 05:35:19;;;;;;;1.50;0.70;;;-3.10;99.90;;;;;;4930476;29;20279;-84
2021/12/25 05:37:45;;;;;;;1.57;0.87;;;-3.10;99.90;;;;;;4915712;29;20091;-84
2021/12/25 05:40:13;;;;;;;1.50;0.80;;;-3.00;99.90;;;;;;4925789;29;20324;-84
2021/12/25 05:42:39;;;;;;;2.67;1.17;;;-3.10;99.90;;;;;;4887865;29;20489;-84
2021/12/25 05:45:06;;;;;;;2.23;0.87;;;-3.20;99.90;;;;;;4896508;29;20303;-84
2021/12/25 05:47:31;;;;;;;1.60;1.03;;;-3.20;99.90;;;;;;4915743;29;20051;-84
2021/12/25 05:49:58;;;;;;;1.40;0.90;;;-3.20;99.90;;;;;;4917992;29;20361;-83
2021/12/25 05:52:24;;;;;;;1.47;0.87;;;-3.20;99.90;;;;;;4910503;29;20439;-84
2021/12/25 05:54:50;;;;;;;1.97;0.70;;;-3.20;99.90;;;;;;4916394;29;20338;-84
2021/12/25 05:57:16;;;;;;;1.83;0.70;;;-3.20;99.90;;;;;;4921808;29;20633;-84
2021/12/25 05:59:41;;;;;;;0.83;0.70;;;-3.20;99.90;;;;;;4923756;29;20284;-84
2021/12/25 06:02:07;;;;;;;1.63;0.93;;;-3.20;99.90;;;;;;4914470;29;20040;-84
2021/12/25 06:04:38;;;;;;;1.17;0.70;;;-3.20;99.90;;;;;;4900161;29;20123;-84
2021/12/25 06:07:04;;;;;;;1.80;0.80;;;-3.20;99.90;;;;;;4936993;29;20288;-84
2021/12/25 06:09:30;;;;;;;3.40;0.87;;;-3.20;99.90;;;;;;4926646;29;20311;-84
2021/12/25 06:11:56;;;;;;;1.07;0.80;;;-3.20;99.90;;;;;;4909339;29;20578;-84
2021/12/25 06:14:22;;;;;;;0.80;0.80;;;-3.30;99.90;;;;;;4913905;29;20471;-83
2021/12/25 06:16:50;;;;;;;1.80;0.73;;;-3.20;99.90;;;;;;4963088;28;20024;-81
2021/12/25 06:19:16;;;;;;;2.00;0.70;;;-3.30;99.90;;;;;;4947766;29;20288;-84
2021/12/25 06:21:43;;;;;;;0.87;0.77;;;-3.30;99.90;;;;;;4916816;29;20303;-84
2021/12/25 06:24:09;;;;;;;1.77;0.80;;;-3.30;99.90;;;;;;4933082;29;20291;-84
2021/12/25 06:26:38;;;;;;;0.67;0.67;;;-3.20;99.90;;;;;;4946169;29;20718;-84
2021/12/25 06:29:04;;;;;;;1.60;0.80;;;-3.40;99.90;;;;;;4948614;29;20331;-84
2021/12/25 06:31:30;;;;;;;1.03;0.70;;;-3.40;99.90;;;;;;4922652;29;20642;-84
2021/12/25 06:33:58;;;;;;;1.53;0.80;;;-3.40;99.90;;;;;;4909138;29;20298;-84
2021/12/25 06:36:24;;;;;;;1.00;0.67;;;-3.50;99.90;;;;;;4937826;29;20047;-84
2021/12/25 06:38:50;;;;;;;2.27;0.87;;;-3.50;99.90;;;;;;4951066;29;20291;-83
2021/12/25 06:41:15;;;;;;;3.13;0.80;;;-3.50;99.90;;;;;;4919178;29;20298;-85
2021/12/25 06:43:42;;;;;;;1.33;0.97;;;-3.50;99.90;;;;;;4917452;29;20047;-84
2021/12/25 06:46:08;;;;;;;1.30;0.80;;;-3.50;99.90;;;;;;4933494;29;20131;-84
2021/12/25 06:48:34;;;;;;;1.77;0.67;;;-3.50;99.90;;;;;;4907495;29;20298;-84
2021/12/25 06:51:00;;;;;;;2.37;0.70;;;-3.60;99.90;;;;;;4919726;29;20624;-84
2021/12/25 06:53:26;;;;;;;2.40;0.70;;;-3.50;99.90;;;;;;4918528;29;20334;-84
2021/12/25 06:55:52;;;;;;;4.37;0.80;;;-3.50;99.90;;;;;;4905758;29;20284;-84
2021/12/25 06:58:18;;;;;;;2.20;0.70;;;-3.60;99.90;;;;;;4924240;29;20035;-84
2021/12/25 07:00:43;;;;;;;1.27;0.83;;;-3.60;99.90;;;;;;4921462;29;20045;-84
2021/12/25 07:03:10;;;;;;;2.60;0.70;;;-3.60;99.90;;;;;;4936402;29;20044;-85
2021/12/25 07:05:35;;;;;;;1.97;0.87;;;-3.60;99.90;;;;;;4945353;29;20062;-85
2021/12/25 07:08:01;;;;;;;1.80;0.90;;;-3.60;99.90;;;;;;4906235;29;20287;-85
2021/12/25 07:10:27;;;;;;;2.20;0.70;;;-3.60;99.90;;;;;;4923810;29;20043;-85
2021/12/25 07:12:54;;;;;;;2.43;0.80;;;-3.60;99.90;;;;;;4939950;29;20131;-85
2021/12/25 07:15:20;;;;;;;1.70;0.80;;;-3.60;99.90;;;;;;4910494;29;20039;-85
2021/12/25 07:17:46;;;;;;;2.73;0.70;;;-3.60;99.90;;;;;;4904077;29;20379;-84
2021/12/25 07:20:12;;;;;;;2.50;0.80;;;-3.60;99.90;;;;;;4915603;29;20395;-85
2021/12/25 07:22:39;;;;;;;3.37;0.77;;;-3.70;99.90;;;;;;4946860;29;20047;-85
2021/12/25 07:25:06;;;;;;;2.00;1.00;;;-3.70;99.90;;;;;;4940340;29;20288;-85
2021/12/25 07:27:32;;;;;;;1.07;0.77;;;-3.70;99.90;;;;;;4893419;29;20279;-85
2021/12/25 07:29:58;;;;;;;3.70;0.87;;;-3.70;99.90;;;;;;4912436;29;20835;-84
2021/12/25 07:32:24;;;;;;;2.07;1.10;;;-3.70;99.90;;;;;;4920622;29;20059;-84
2021/12/25 07:34:51;;;;;;;0.97;0.70;;;-3.70;99.90;;;;;;4951609;29;20635;-85
2021/12/25 07:37:18;;;;;;;2.50;0.70;;;-3.80;99.90;;;;;;4915311;29;20047;-85
2021/12/25 07:39:44;;;;;;;3.30;1.00;;;-3.80;99.90;;;;;;4927840;29;20290;-86
2021/12/25 07:42:11;;;;;;;1.93;0.87;;;-3.80;99.90;;;;;;4930511;29;20330;-86
2021/12/25 07:44:38;;;;;;;2.87;0.90;;;-3.80;99.90;;;;;;4897746;29;20291;-85
2021/12/25 07:47:09;;;;;;;1.77;0.93;;;-3.80;99.90;;;;;;4933579;29;20294;-85
2021/12/25 07:49:35;;;;;;;2.70;0.90;;;-3.80;99.90;;;;;;4915667;29;20307;-85
2021/12/25 07:52:01;;;;;;;3.53;0.93;;;-3.80;99.90;;;;;;4916338;29;20632;-85
2021/12/25 07:54:27;;;;;;;1.57;0.80;;;-3.90;99.90;;;;;;4917204;29;20279;-87
2021/12/25 07:56:54;;;;;;;2.67;1.10;;;-3.90;99.90;;;;;;4912048;29;20890;-88
2021/12/25 07:59:20;;;;;;;1.27;0.80;;;-3.90;99.90;;;;;;4913757;29;20122;-86
2021/12/25 08:01:46;;;;;;;2.20;1.00;;;-3.90;99.90;;;;;;4924231;29;20398;-85
2021/12/25 08:04:12;;;;;;;1.30;0.90;;;-3.80;99.90;;;;;;4955444;29;20051;-86
2021/12/25 08:06:39;;;;;;;1.27;0.80;;;-3.90;99.90;;;;;;4938832;29;20579;-86
2021/12/25 08:09:05;;;;;;;2.03;0.77;;;-3.90;99.90;;;;;;4920261;29;20044;-86
2021/12/25 08:11:31;;;;;;;1.83;0.90;;;-3.90;99.90;;;;;;4908522;29;20371;-86
2021/12/25 08:13:58;;;;;;;0.80;0.70;;;-3.90;99.90;;;;;;4920496;29;20370;-86
2021/12/25 08:16:24;;;;;;;3.23;1.00;;;-3.90;99.90;;;;;;4955267;29;20118;-85
2021/12/25 08:18:49;;;;;;;3.00;0.70;;;-3.80;99.90;;;;;;4922702;29;20342;-85
2021/12/25 08:21:16;;;;;;;1.90;1.10;;;-3.80;99.90;;;;;;4943891;29;20369;-83
2021/12/25 08:23:42;;;;;;;4.23;1.00;;;-3.80;99.90;;;;;;4937101;29;20132;-84
2021/12/25 08:26:09;;;;;;;1.10;0.90;;;-3.80;99.90;;;;;;4920455;29;20392;-83
2021/12/25 08:28:35;;;;;;;2.00;0.90;;;-3.80;99.90;;;;;;4936139;29;20468;-83
2021/12/25 08:31:02;;;;;;;3.03;0.73;;;-3.80;99.90;;;;;;4909208;29;20283;-84
2021/12/25 08:33:28;;;;;;;2.27;1.00;;;-3.80;99.90;;;;;;4954505;29;20308;-84
2021/12/25 08:35:54;;;;;;;2.77;0.93;;;-3.80;99.90;;;;;;4935577;29;20284;-84
2021/12/25 08:38:20;;;;;;;2.67;0.90;;;-3.80;99.90;;;;;;4920566;29;20694;-84
2021/12/25 08:40:45;;;;;;;1.47;0.60;;;-3.70;99.90;;;;;;4901480;29;20043;-84
2021/12/25 08:43:14;;;;;;;1.77;1.20;;;-3.70;99.90;;;;;;4903452;29;20083;-84
2021/12/25 08:45:45;;;;;;;1.90;1.03;;;-3.70;99.90;;;;;;4935636;29;20050;-84
2021/12/25 08:48:17;;;;;;;4.78;1.00;;;-3.60;99.90;;;;;;4919529;29;20283;-84
2021/12/25 08:50:46;;;;;;;2.28;0.80;;;-3.60;99.90;;;;;;4933482;29;20044;-84
2021/12/25 08:53:12;;;;;;;2.00;0.90;;;-3.50;99.90;;;;;;4954725;29;20050;-84
2021/12/25 08:55:38;;;;;;;3.93;0.77;;;-3.40;99.90;;;;;;4913959;29;20310;-83
2021/12/25 08:58:04;;;;;;;3.57;0.93;;;-3.40;99.90;;;;;;4920279;29;20299;-83
2021/12/25 09:00:30;;;;;;;2.30;1.20;;;-3.40;99.90;;;;;;4959755;29;20091;-80
2021/12/25 09:02:55;;;;;;;1.60;1.00;;;-3.30;99.90;;;;;;4877421;29;20492;-84
2021/12/25 09:05:21;;;;;;;2.60;1.10;;;-3.20;99.90;;;;;;4919891;29;20043;-84
2021/12/25 09:07:47;;;;;;;1.20;0.90;;;-3.20;99.90;;;;;;4890573;29;20046;-83
2021/12/25 09:10:13;;;;;;;2.23;1.07;;;-3.10;99.90;;;;;;4922792;29;20779;-84
2021/12/25 09:12:43;;;;;;;3.60;1.13;;;-3.00;99.90;;;;;;4916432;29;20035;-83
2021/12/25 09:15:10;;;;;;;1.30;1.00;;;-3.00;99.90;;;;;;4889696;29;20103;-83
2021/12/25 09:17:37;;;;;;;2.77;1.00;;;-3.00;99.90;;;;;;4904464;29;20283;-83
2021/12/25 09:20:05;;;;;;;1.53;0.83;;;-2.90;99.90;;;;;;4921388;29;20434;-83
2021/12/25 09:22:31;;;;;;;3.37;1.40;;;-2.90;99.90;;;;;;4922855;29;20287;-83
2021/12/25 09:24:57;;;;;;;2.10;1.00;;;-2.80;99.90;;;;;;4922939;29;20299;-83
2021/12/25 09:27:23;;;;;;;1.67;0.97;;;-2.80;99.90;;;;;;4923435;29;20090;-83
2021/12/25 09:29:48;;;;;;;1.47;1.00;;;-2.70;99.90;;;;;;4938860;29;20054;-83
2021/12/25 09:32:14;;;;;;;5.63;1.20;;;-2.70;99.90;;;;;;4938851;29;20438;-83
2021/12/25 09:34:40;;;;;;;1.67;1.20;;;-2.70;99.90;;;;;;4954264;29;20487;-83
2021/12/25 09:37:06;;;;;;;1.47;0.70;;;-2.60;99.90;;;;;;4911203;29;20287;-82
2021/12/25 09:39:33;;;;;;;1.60;0.90;;;-2.60;99.90;;;;;;4933435;29;20079;-82
2021/12/25 09:41:59;;;;;;;1.70;1.40;;;-2.50;99.90;;;;;;4922300;29;20846;-82
2021/12/25 09:44:25;;;;;;;1.67;0.97;;;-2.50;99.90;;;;;;4938044;29;20790;-83
2021/12/25 09:46:51;;;;;;;2.43;0.90;;;-2.40;99.90;;;;;;4938487;29;20301;-81
2021/12/25 09:49:17;;;;;;;1.87;1.03;;;-2.40;99.90;;;;;;4922271;29;20881;-84
2021/12/25 09:51:43;;;;;;;2.57;0.80;;;-2.40;99.90;;;;;;4938882;29;20392;-84
2021/12/25 09:54:12;;;;;;;2.50;1.07;;;-2.30;99.90;;;;;;4921179;29;20315;-83
2021/12/25 09:56:42;;;;;;;3.37;1.00;;;-2.30;99.90;;;;;;4915651;29;20078;-82
2021/12/25 09:59:12;;;;;;;4.57;1.50;;;-2.30;99.90;;;;;;4921484;29;20287;-83
2021/12/25 10:01:42;;;;;;;1.83;0.70;;;-2.20;99.90;;;;;;4916238;29;20314;-83
2021/12/25 10:04:10;;;;;;;3.17;1.10;;;-2.20;99.90;;;;;;4930716;29;20286;-84
2021/12/25 10:06:40;;;;;;;1.20;1.00;;;-2.20;99.90;;;;;;4952216;29;20350;-85
2021/12/25 10:09:17;;;;;;;0.90;0.77;;;-2.10;99.90;;;;;;4922142;29;20386;-84
2021/12/25 10:12:08;;;;;;;1.90;0.80;;;-2.10;99.90;;;;;;4933662;29;20346;-83
2021/12/25 10:14:35;;;;;;;1.77;0.90;;;-2.10;99.90;;;;;;4902986;29;20361;-84
2021/12/25 10:17:20;;;;;;;1.67;0.90;;;-2.00;99.90;;;;;;4939986;29;20286;-84
2021/12/25 10:20:11;;;;;;;1.60;0.87;;;-2.00;99.90;;;;;;4918812;29;20289;-84
2021/12/25 10:22:59;;;;;;;3.22;0.90;;;-1.90;99.90;;;;;;4908778;29;20635;-84
2021/12/25 10:25:35;;;;;;;1.87;0.90;;;-1.90;99.90;;;;;;4938874;29;20134;-84
2021/12/25 10:28:06;;;;;;;2.17;1.13;;;-1.90;99.90;;;;;;4937529;29;20298;-84
2021/12/25 10:30:47;;;;;;;2.28;1.17;;;-1.80;99.90;;;;;;4941409;29;20303;-84
2021/12/25 10:33:33;;;;;;;2.33;1.00;;;-1.70;99.90;;;;;;4930776;29;20035;-84
2021/12/25 10:36:08;;;;;;;7.17;1.60;;;-1.70;99.90;;;;;;4952595;29;20295;-86
2021/12/25 10:38:34;;;;;;;2.90;0.90;;;-1.70;99.90;;;;;;4921013;29;20285;-83
2021/12/25 10:41:20;;;;;;;3.33;0.87;;;-1.70;99.90;;;;;;4933144;29;20283;-84
2021/12/25 10:43:48;;;;;;;3.57;0.90;;;-1.60;99.90;;;;;;4957786;29;20803;-84
2021/12/25 10:46:14;;;;;;;3.57;2.27;;;-1.60;99.90;;;;;;4913439;29;20302;-84
2021/12/25 10:48:40;;;;;;;1.50;0.77;;;-1.60;99.90;;;;;;4922123;29;20702;-84
2021/12/25 10:51:21;;;;;;;1.90;1.10;;;-1.60;99.90;;;;;;4924414;29;20502;-83
2021/12/25 10:53:51;;;;;;;1.90;0.90;;;-1.50;99.90;;;;;;4925406;29;20462;-84
2021/12/25 10:56:19;;;;;;;2.20;1.30;;;-1.50;99.90;;;;;;4923781;29;20374;-84
2021/12/25 10:58:44;;;;;;;2.77;1.40;;;-1.50;99.90;;;;;;4956574;29;20805;-83
2021/12/25 11:01:16;;;;;;;1.93;1.00;;;-1.50;99.90;;;;;;4908724;29;20279;-83
2021/12/25 11:03:44;;;;;;;2.35;0.90;;;-1.50;99.90;;;;;;4922437;29;20046;-83
2021/12/25 11:06:18;;;;;;;3.27;1.03;;;-1.50;99.90;;;;;;4924668;29;20094;-84
2021/12/25 11:08:46;;;;;;;2.47;1.10;;;-1.50;99.90;;;;;;4909471;29;20279;-83
2021/12/25 11:11:16;;;;;;;2.07;1.07;;;-1.50;99.90;;;;;;4924660;29;20274;-83
2021/12/25 11:13:48;;;;;;;4.13;1.10;;;-1.40;99.90;;;;;;4956326;29;20286;-83
2021/12/25 11:16:33;;;;;;;;;;;-1.40;99.90;;;;;;4941929;29;20327;-83
2021/12/25 11:19:28;;;;;;;3.90;1.50;;;-1.50;99.90;;;;;;4937505;29;19941;-84
2021/12/25 11:21:57;;;;;;;2.70;1.10;;;-1.40;99.90;;;;;;4906795;29;20359;-84
2021/12/25 11:24:35;;;;;;;2.30;1.20;;;-1.40;99.90;;;;;;4911074;29;20290;-85
2021/12/25 11:27:06;;;;;;;3.10;1.30;;;-1.40;99.90;;;;;;4906536;29;20858;-83
2021/12/25 11:29:33;;;;;;;3.90;1.10;;;-1.40;99.90;;;;;;4938020;29;20296;-84
2021/12/25 11:32:03;;;;;;;2.83;1.07;;;-1.40;99.90;;;;;;4923437;29;20283;-82
2021/12/25 11:34:29;;;;;;;4.07;1.20;;;-1.40;99.90;;;;;;4957311;28;20278;-83
2021/12/25 11:36:57;;;;;;;2.83;1.27;;;-1.30;99.90;;;;;;4933922;29;20298;-83
2021/12/25 11:39:26;;;;;;;3.40;1.30;;;-1.30;99.90;;;;;;4957815;29;20272;-84
2021/12/25 11:41:56;;;;;;;1.70;1.00;;;-1.20;99.90;;;;;;4917967;29;20647;-85
2021/12/25 11:44:46;;;;;;;3.47;1.30;;;-1.20;99.90;;;;;;4925089;29;20357;-85
2021/12/25 11:47:33;;;;;;;3.93;1.30;;;-1.20;99.90;;;;;;4933337;29;20374;-83
2021/12/25 11:50:03;;;;;;;4.20;1.20;;;-1.20;99.90;;;;;;4925052;29;20395;-84
2021/12/25 11:52:40;;;;;;;3.10;1.80;;;-1.10;99.90;;;;;;4924090;29;20398;-84
2021/12/25 11:58:03;;;;;;;2.77;1.00;;;-1.10;99.90;;;;;;4940897;29;20817;-85
2021/12/25 12:00:48;;;;;;;3.17;1.77;;;-1.10;99.90;;;;;;4928644;29;20364;-86
2021/12/25 12:03:43;;;;;;;2.63;1.10;;;-1.10;99.90;;;;;;4937226;29;20287;-84
2021/12/25 12:06:09;;;;;;;1.90;1.10;;;-1.10;99.90;;;;;;4950022;29;20378;-87
2021/12/25 12:08:53;;;;;;;3.07;1.00;;;-1.00;99.90;;;;;;4905458;29;20286;-85
2021/12/25 12:11:25;;;;;;;3.70;1.93;;;-1.00;99.90;;;;;;4948389;29;20283;-83
2021/12/25 12:14:13;;;;;;;3.13;1.63;;;-1.00;99.90;;;;;;4924469;29;20279;-83
2021/12/25 12:16:59;;;;;;;15.07;7.30;;;-1.00;99.90;;;;;;4923862;29;20035;-83
2021/12/25 12:19:38;;;;;;;15.87;7.47;;;-1.00;99.90;;;;;;4938774;29;20286;-83
2021/12/25 12:22:34;;;;;;;6.70;4.23;;;-1.00;99.90;;;;;;4925196;29;20303;-83
2021/12/25 12:27:35;;;;;;;8.68;4.28;;;-1.00;99.90;;;;;;4951408;29;20283;-83
2021/12/25 12:30:05;;;;;;;5.77;2.10;;;-1.00;99.90;;;;;;4920424;29;20349;-83
2021/12/25 12:32:45;;;;;;;3.63;1.80;;;-1.00;99.90;;;;;;4951148;29;20347;-84
2021/12/25 12:35:33;;;;;;;4.87;2.60;;;-1.00;99.90;;;;;;4911052;29;20292;-84
2021/12/25 12:38:26;;;;;;;11.67;4.30;;;-1.00;99.90;;;;;;4907022;29;20431;-83
2021/12/25 12:41:38;;;;;;;5.82;2.10;;;-1.00;99.90;;;;;;4937900;29;20305;-83
2021/12/25 12:44:24;;;;;;;8.90;4.05;;;-1.00;99.90;;;;;;4921618;29;20048;-82
2021/12/25 12:46:55;;;;;;;20.13;8.63;;;-1.00;99.90;;;;;;4936833;29;20396;-83
2021/12/25 12:49:22;;;;;;;9.52;5.35;;;-1.00;99.90;;;;;;4937854;29;20348;-83
2021/12/25 12:52:09;;;;;;;5.83;2.63;;;-1.00;99.90;;;;;;4936970;29;20090;-84
2021/12/25 12:54:40;;;;;;;7.77;4.53;;;-1.00;99.90;;;;;;4936753;29;20794;-83
2021/12/25 12:57:05;;;;;;;7.33;2.77;;;-0.90;99.90;;;;;;4932914;29;20283;-83
2021/12/25 12:59:43;;;;;;;6.37;2.40;;;-0.90;99.90;;;;;;4904569;29;20842;-83
2021/12/25 13:02:09;;;;;;;3.63;2.00;;;-0.90;99.90;;;;;;4935985;29;20504;-84
2021/12/25 13:04:49;;;;;;;11.23;5.30;;;-0.90;99.90;;;;;;4937246;29;20287;-84
2021/12/25 13:07:19;;;;;;;11.17;3.30;;;-0.90;99.90;;;;;;4936558;29;20617;-83
2021/12/25 13:09:53;;;;;;;4.70;3.27;;;-0.90;99.90;;;;;;4908849;29;20799;-83
2021/12/25 13:12:39;;;;;;;2.87;1.77;;;-0.90;99.90;;;;;;4919568;29;20768;-83
2021/12/25 13:15:15;;;;;;;4.33;2.10;;;-0.90;99.90;;;;;;4931137;29;20279;-85
2021/12/25 13:17:53;;;;;;;12.40;5.60;;;-0.90;99.90;;;;;;4919353;29;20362;-84
2021/12/25 13:20:51;;;;;;;13.40;5.73;;;-0.90;99.90;;;;;;4920982;29;20295;-83
2021/12/25 13:23:24;;;;;;;16.47;8.60;;;-0.90;99.90;;;;;;4922205;29;20290;-84
2021/12/25 13:25:58;;;;;;;8.57;5.10;;;-0.80;99.90;;;;;;4937785;29;20643;-84
2021/12/25 13:28:26;;;;;;;9.40;6.17;;;-0.80;99.90;;;;;;4938275;29;20313;-84
2021/12/25 13:31:01;;;;;;;5.33;2.83;;;-0.90;99.90;;;;;;4937381;29;20306;-83
2021/12/25 13:33:31;;;;;;;6.87;2.70;;;-0.90;99.90;;;;;;4926361;29;20601;-84
2021/12/25 13:36:08;;;;;;;12.37;4.43;;;-0.90;99.90;;;;;;4922706;29;20333;-84
2021/12/25 13:38:57;;;;;;;11.70;6.23;;;-1.00;99.90;;;;;;4922780;29;20275;-84
2021/12/25 13:41:29;;;;;;;7.70;3.97;;;-1.00;99.90;;;;;;4933748;29;20286;-84
2021/12/25 13:44:24;;;;;;;10.57;6.20;;;-1.00;99.90;;;;;;4920916;29;20287;-84
2021/12/25 13:46:57;;;;;;;14.20;7.00;;;-1.00;99.90;;;;;;4933788;29;20039;-84
2021/12/25 13:49:45;;;;;;;6.53;4.00;;;-1.00;99.90;;;;;;4942824;29;20821;-84
2021/12/25 13:52:19;;;;;;;4.33;2.57;;;-1.00;99.90;;;;;;4938249;29;20278;-84
2021/12/25 13:54:47;;;;;;;13.07;6.93;;;-1.00;99.90;;;;;;4922481;29;20378;-84
2021/12/25 13:57:14;;;;;;;15.63;7.90;;;-1.00;99.90;;;;;;4938803;29;20279;-84
2021/12/25 13:59:40;;;;;;;11.70;6.83;;;-1.10;99.90;;;;;;4925576;29;20853;-84
2021/12/25 14:02:12;;;;;;;12.77;6.10;;;-1.10;99.90;;;;;;4909384;29;20292;-84
2021/12/25 14:04:43;;;;;;;6.25;2.40;;;-1.00;99.90;;;;;;4936615;29;20294;-84
2021/12/25 14:07:11;;;;;;;3.23;1.77;;;-1.00;99.90;;;;;;4911048;29;20376;-84
2021/12/25 14:09:36;;;;;;;3.03;1.60;;;-1.10;99.90;;;;;;4951462;29;20303;-84
2021/12/25 14:12:05;;;;;;;5.20;1.40;;;-1.10;99.90;;;;;;4957893;29;20279;-83
2021/12/25 14:14:32;;;;;;;2.33;1.40;;;-1.10;99.90;;;;;;4958588;29;20051;-81
2021/12/25 14:16:59;;;;;;;5.33;1.30;;;-1.10;99.90;;;;;;4966594;29;20647;-84
2021/12/25 14:19:27;;;;;;;2.83;1.50;;;-1.10;99.90;;;;;;4933251;29;20290;-84
2021/12/25 14:22:03;;;;;;;3.47;1.67;;;-1.20;99.90;;;;;;4920397;29;20298;-83
2021/12/25 14:24:43;;;;;;;10.10;5.40;;;-1.20;99.90;;;;;;4945916;29;20298;-83